createdAt,value
2023-10-31T00:00:27.800Z,6.90
2023-10-31T00:02:54.940Z,10.80
2023-10-31T00:05:22.248Z,5.20
2023-10-31T00:07:49.437Z,7.70
2023-10-31T00:10:16.790Z,6.82
2023-10-31T00:12:43.791Z,5.25
2023-10-31T00:15:11.152Z,6.78
2023-10-31T00:17:39.679Z,3.95
2023-10-31T00:20:07.994Z,5.57
2023-10-31T00:22:35.278Z,6.93
2023-10-31T00:25:02.313Z,11.05
2023-10-31T00:27:29.312Z,4.63
2023-10-31T00:29:56.257Z,7.93
2023-10-31T00:32:23.469Z,9.35
2023-10-31T00:34:51.930Z,4.93
2023-10-31T00:37:19.006Z,8.95
2023-10-31T00:39:45.980Z,7.88
2023-10-31T00:42:13.027Z,7.55
2023-10-31T00:44:40.071Z,8.25
2023-10-31T00:47:07.203Z,5.07
2023-10-31T00:49:34.206Z,5.07
2023-10-31T00:52:02.666Z,8.98
2023-10-31T00:54:29.725Z,13.73
2023-10-31T00:56:56.716Z,7.47
2023-10-31T00:59:23.840Z,5.80
2023-10-31T01:01:50.838Z,7.55
2023-10-31T01:04:18.286Z,9.15
2023-10-31T01:06:45.305Z,7.68
2023-10-31T01:09:14.541Z,7.43
2023-10-31T01:11:41.540Z,11.23
2023-10-31T01:14:08.562Z,10.55
2023-10-31T01:16:35.599Z,7.40
2023-10-31T01:19:02.622Z,6.95
2023-10-31T01:21:29.699Z,7.10
2023-10-31T01:23:56.732Z,8.32
2023-10-31T01:26:26.043Z,4.63
2023-10-31T01:28:53.131Z,5.43
2023-10-31T01:31:20.132Z,7.20
2023-10-31T01:33:47.378Z,6.55
2023-10-31T01:36:15.605Z,10.52
2023-10-31T01:38:42.633Z,7.80
2023-10-31T01:41:09.753Z,5.95
2023-10-31T01:43:39.510Z,8.93
2023-10-31T01:46:06.971Z,7.65
2023-10-31T01:48:35.300Z,7.03
2023-10-31T01:51:08.678Z,5.80
2023-10-31T01:53:36.653Z,6.18
2023-10-31T01:56:05.514Z,7.72
2023-10-31T01:58:35.130Z,4.82
2023-10-31T02:01:05.298Z,7.78
2023-10-31T02:03:32.783Z,4.65
2023-10-31T02:06:00.279Z,7.22
2023-10-31T02:08:27.260Z,7.35
2023-10-31T02:10:54.274Z,8.82
2023-10-31T02:13:21.299Z,8.70
2023-10-31T02:15:48.497Z,7.55
2023-10-31T02:18:17.248Z,7.53
2023-10-31T02:20:44.772Z,8.80
2023-10-31T02:23:16.371Z,8.80
2023-10-31T02:25:43.438Z,6.13
2023-10-31T02:28:10.489Z,8.73
2023-10-31T02:30:37.801Z,8.85
2023-10-31T02:33:04.958Z,4.30
2023-10-31T02:35:32.169Z,6.00
2023-10-31T02:37:59.195Z,7.07
2023-10-31T02:40:27.705Z,5.28
2023-10-31T02:42:54.693Z,14.40
2023-10-31T02:45:21.896Z,7.50
2023-10-31T02:47:48.946Z,13.73
2023-10-31T02:50:16.165Z,8.65
2023-10-31T02:52:43.182Z,7.90
2023-10-31T02:55:10.399Z,12.18
2023-10-31T02:57:38.821Z,3.75
2023-10-31T03:00:08.375Z,6.88
2023-10-31T03:02:35.384Z,6.70
2023-10-31T03:05:03.189Z,5.97
2023-10-31T03:07:30.258Z,11.43
2023-10-31T03:09:57.314Z,6.35
2023-10-31T03:12:25.311Z,7.30
2023-10-31T03:14:53.822Z,5.60
2023-10-31T03:17:21.271Z,7.53
2023-10-31T03:19:48.367Z,6.45
2023-10-31T03:22:15.394Z,9.55
2023-10-31T03:24:42.381Z,6.47
2023-10-31T03:27:09.379Z,6.57
2023-10-31T03:29:36.981Z,7.93
2023-10-31T03:32:06.352Z,5.05
2023-10-31T03:34:33.474Z,7.80
2023-10-31T03:37:00.689Z,5.43
2023-10-31T03:39:28.247Z,7.28
2023-10-31T03:41:55.667Z,7.22
2023-10-31T03:44:25.346Z,7.78
2023-10-31T03:46:52.642Z,10.70
2023-10-31T03:49:21.066Z,9.02
2023-10-31T03:51:48.093Z,14.05
2023-10-31T03:54:15.129Z,9.38
2023-10-31T03:56:43.814Z,6.10
2023-10-31T03:59:11.130Z,13.20
2023-10-31T04:01:38.257Z,7.07
2023-10-31T04:04:05.826Z,7.70
2023-10-31T04:06:34.177Z,7.93
2023-10-31T04:09:01.474Z,8.38
2023-10-31T04:11:28.746Z,7.22
2023-10-31T04:13:55.838Z,4.88
2023-10-31T04:16:22.912Z,9.50
2023-10-31T04:18:50.021Z,8.70
2023-10-31T04:21:17.160Z,11.32
2023-10-31T04:23:45.615Z,7.78
2023-10-31T04:26:12.604Z,8.32
2023-10-31T04:28:40.385Z,10.98
2023-10-31T04:31:07.491Z,6.47
2023-10-31T04:33:34.558Z,7.50
2023-10-31T04:36:03.402Z,8.55
2023-10-31T04:38:30.572Z,12.98
2023-10-31T04:40:59.025Z,6.30
2023-10-31T04:43:26.302Z,6.97
2023-10-31T04:45:53.346Z,8.50
2023-10-31T04:48:20.643Z,6.30
2023-10-31T04:50:47.797Z,8.80
2023-10-31T04:53:14.820Z,13.13
2023-10-31T04:55:41.891Z,15.20
2023-10-31T04:58:10.253Z,10.18
2023-10-31T05:00:37.221Z,12.00
2023-10-31T05:03:04.300Z,11.82
2023-10-31T05:05:31.423Z,5.30
2023-10-31T05:07:59.358Z,8.48
2023-10-31T05:10:27.560Z,10.57
2023-10-31T05:12:55.136Z,9.65
2023-10-31T05:15:23.500Z,14.40
2023-10-31T05:17:50.563Z,6.97
2023-10-31T05:20:17.802Z,8.32
2023-10-31T05:22:44.826Z,7.82
2023-10-31T05:25:12.221Z,3.50
2023-10-31T05:27:40.400Z,3.63
2023-10-31T05:30:08.411Z,12.98
2023-10-31T05:32:36.963Z,7.63
2023-10-31T05:35:04.623Z,5.15
2023-10-31T05:37:31.654Z,6.47
2023-10-31T05:39:58.682Z,9.00
2023-10-31T05:42:26.579Z,12.82
2023-10-31T05:44:53.548Z,4.70
2023-10-31T05:47:20.584Z,8.60
2023-10-31T05:49:49.010Z,5.80
2023-10-31T05:52:16.003Z,8.52
2023-10-31T05:54:42.989Z,5.75
2023-10-31T05:57:09.949Z,10.95
2023-10-31T05:59:36.895Z,12.30
2023-10-31T06:02:04.290Z,7.88
2023-10-31T06:04:31.259Z,12.13
2023-10-31T06:07:00.015Z,5.90
2023-10-31T06:09:26.969Z,10.10
2023-10-31T06:11:54.002Z,6.93
2023-10-31T06:14:21.064Z,11.52
2023-10-31T06:16:48.137Z,7.25
2023-10-31T06:19:15.125Z,10.60
2023-10-31T06:21:42.126Z,6.63
2023-10-31T06:24:11.175Z,7.00
2023-10-31T06:26:38.158Z,5.63
2023-10-31T06:29:27.300Z,13.63
2023-10-31T06:31:52.339Z,9.38
2023-10-31T06:34:20.266Z,11.93
2023-10-31T06:36:47.264Z,7.35
2023-10-31T06:39:15.608Z,11.75
2023-10-31T06:41:42.661Z,7.60
2023-10-31T06:44:09.724Z,7.30
2023-10-31T06:46:36.704Z,6.03
2023-10-31T06:49:04.168Z,8.00
2023-10-31T06:51:31.220Z,8.85
2023-10-31T06:53:58.349Z,10.48
2023-10-31T06:56:29.744Z,6.75
2023-10-31T06:58:56.858Z,12.60
2023-10-31T07:01:23.846Z,10.27
2023-10-31T07:03:51.498Z,12.70
2023-10-31T07:06:18.526Z,9.98
2023-10-31T07:08:45.517Z,8.85
2023-10-31T07:11:12.588Z,17.55
2023-10-31T07:13:41.122Z,8.73
2023-10-31T07:16:08.775Z,12.15
2023-10-31T07:18:35.793Z,6.97
2023-10-31T07:21:03.045Z,9.45
2023-10-31T07:23:30.020Z,6.25
2023-10-31T07:25:57.034Z,10.15
2023-10-31T07:28:24.264Z,8.73
2023-10-31T07:30:52.785Z,13.68
2023-10-31T07:33:19.892Z,9.27
2023-10-31T07:35:46.875Z,8.00
2023-10-31T07:38:13.949Z,14.60
2023-10-31T07:40:40.999Z,10.93
2023-10-31T07:43:07.968Z,8.85
2023-10-31T07:45:34.934Z,5.40
2023-10-31T07:48:03.449Z,10.05
2023-10-31T07:50:30.583Z,6.90
2023-10-31T07:52:57.569Z,13.23
2023-10-31T07:55:24.592Z,8.80
2023-10-31T07:57:51.652Z,25.00
2023-10-31T08:00:19.428Z,9.50
2023-10-31T08:02:46.578Z,15.30
2023-10-31T08:05:15.823Z,13.43
2023-10-31T08:07:42.808Z,13.82
2023-10-31T08:10:10.404Z,13.15
2023-10-31T08:12:37.452Z,12.27
2023-10-31T08:15:05.348Z,12.75
2023-10-31T08:17:32.506Z,17.90
2023-10-31T08:19:59.598Z,13.65
2023-10-31T08:22:27.993Z,15.27
2023-10-31T08:24:55.065Z,9.60
2023-10-31T08:27:22.681Z,13.65
2023-10-31T08:29:49.653Z,16.58
2023-10-31T08:32:17.435Z,12.52
2023-10-31T08:34:44.496Z,23.63
2023-10-31T08:37:11.537Z,18.10
2023-10-31T08:39:41.130Z,23.63
2023-10-31T08:42:08.143Z,25.88
2023-10-31T08:44:35.330Z,30.30
2023-10-31T08:47:02.339Z,27.33
2023-10-31T08:49:29.373Z,30.67
2023-10-31T08:51:56.531Z,18.33
2023-10-31T08:54:23.442Z,20.88
2023-10-31T08:56:51.760Z,33.03
2023-10-31T08:59:18.795Z,32.35
2023-10-31T09:01:45.850Z,19.98
2023-10-31T09:04:13.116Z,22.92
2023-10-31T09:06:40.093Z,18.98
2023-10-31T09:09:07.147Z,13.93
2023-10-31T09:11:34.161Z,11.48
2023-10-31T09:14:02.670Z,16.77
2023-10-31T09:16:29.681Z,12.20
2023-10-31T09:18:56.671Z,11.95
2023-10-31T09:21:23.837Z,15.30
2023-10-31T09:23:50.805Z,10.38
2023-10-31T09:26:19.128Z,11.90
2023-10-31T09:28:51.210Z,18.73
2023-10-31T09:31:20.347Z,17.73
2023-10-31T09:33:47.702Z,18.67
2023-10-31T09:36:15.747Z,7.68
2023-10-31T09:38:43.183Z,5.10
2023-10-31T09:41:11.428Z,9.02
2023-10-31T09:43:38.850Z,6.03
2023-10-31T09:46:06.622Z,14.07
2023-10-31T09:48:35.797Z,11.65
2023-10-31T09:51:04.143Z,10.80
2023-10-31T09:53:33.013Z,5.85
2023-10-31T09:56:00.462Z,10.55
2023-10-31T09:58:27.673Z,8.98
2023-10-31T10:00:54.720Z,12.90
2023-10-31T10:03:22.491Z,8.93
2023-10-31T10:05:51.322Z,8.55
2023-10-31T10:08:18.550Z,10.30
2023-10-31T10:10:45.883Z,5.80
2023-10-31T10:13:13.990Z,6.65
2023-10-31T10:15:50.158Z,8.88
2023-10-31T10:18:26.904Z,4.03
2023-10-31T10:21:00.104Z,4.97
2023-10-31T10:23:28.476Z,4.85
2023-10-31T10:25:57.567Z,8.15
2023-10-31T10:28:27.778Z,3.88
2023-10-31T10:30:55.432Z,5.70
2023-10-31T10:33:23.585Z,5.05
2023-10-31T10:35:50.652Z,9.70
2023-10-31T10:38:20.410Z,4.70
2023-10-31T10:40:48.757Z,3.50
2023-10-31T10:43:22.364Z,7.32
2023-10-31T10:45:54.888Z,11.63
2023-10-31T10:48:23.111Z,6.50
2023-10-31T10:50:56.478Z,10.93
2023-10-31T10:53:26.720Z,7.03
2023-10-31T10:55:58.305Z,14.48
2023-10-31T10:58:33.413Z,6.05
2023-10-31T11:01:00.642Z,6.05
2023-10-31T11:03:29.283Z,3.95
2023-10-31T11:05:56.889Z,6.70
2023-10-31T11:08:28.815Z,6.93
2023-10-31T11:10:57.157Z,2.75
2023-10-31T11:13:26.025Z,6.03
2023-10-31T11:15:58.734Z,2.58
2023-10-31T11:18:26.928Z,2.97
2023-10-31T11:20:54.372Z,1.58
2023-10-31T11:23:21.753Z,7.50
2023-10-31T11:25:56.069Z,9.40
2023-10-31T11:30:51.023Z,2.97
2023-10-31T11:33:21.785Z,2.78
2023-10-31T11:35:51.668Z,7.55
2023-10-31T11:38:33.482Z,5.63
2023-10-31T11:41:03.713Z,6.75
2023-10-31T11:43:37.988Z,1.40
2023-10-31T11:46:05.141Z,4.82
2023-10-31T11:48:47.048Z,1.80
2023-10-31T11:51:14.708Z,2.55
2023-10-31T11:53:42.246Z,3.80
2023-10-31T11:56:21.687Z,5.32
2023-10-31T11:58:57.200Z,3.63
2023-10-31T12:01:24.339Z,8.60
2023-10-31T12:03:51.659Z,6.15
2023-10-31T12:06:20.083Z,3.78
2023-10-31T12:08:48.616Z,2.75
2023-10-31T12:11:21.131Z,5.20
2023-10-31T12:13:57.995Z,3.65
2023-10-31T12:16:27.044Z,2.97
2023-10-31T12:18:58.719Z,2.33
2023-10-31T12:21:39.965Z,5.05
2023-10-31T12:24:08.616Z,7.20
2023-10-31T12:26:36.292Z,5.32
2023-10-31T12:29:15.718Z,3.38
2023-10-31T12:31:46.826Z,1.55
2023-10-31T12:34:15.232Z,3.10
2023-10-31T12:36:42.611Z,3.35
2023-10-31T12:39:12.803Z,7.95
2023-10-31T12:41:41.222Z,5.22
2023-10-31T12:44:14.405Z,2.65
2023-10-31T12:46:43.449Z,4.38
2023-10-31T12:49:14.784Z,3.38
2023-10-31T12:51:57.018Z,4.72
2023-10-31T12:54:29.696Z,4.38
2023-10-31T12:57:00.932Z,4.80
2023-10-31T12:59:29.078Z,3.05
2023-10-31T13:02:01.121Z,3.75
2023-10-31T13:04:29.326Z,3.33
2023-10-31T13:06:58.545Z,4.22
2023-10-31T13:09:29.771Z,4.13
2023-10-31T13:11:59.857Z,3.33
2023-10-31T13:14:26.844Z,5.22
2023-10-31T13:16:53.980Z,9.02
2023-10-31T13:19:22.476Z,8.38
2023-10-31T13:21:49.629Z,6.50
2023-10-31T13:24:16.878Z,4.22
2023-10-31T13:26:45.827Z,3.38
2023-10-31T13:29:14.099Z,1.70
2023-10-31T13:31:41.990Z,3.40
2023-10-31T13:34:08.965Z,5.80
2023-10-31T13:36:38.332Z,3.60
2023-10-31T13:39:05.362Z,2.58
2023-10-31T13:41:32.712Z,6.28
2023-10-31T13:44:00.154Z,2.95
2023-10-31T13:46:27.308Z,6.30
2023-10-31T13:48:54.340Z,3.78
2023-10-31T13:51:22.905Z,4.75
2023-10-31T13:53:51.414Z,11.95
2023-10-31T13:56:18.649Z,5.57
2023-10-31T13:58:45.885Z,11.98
2023-10-31T14:01:12.930Z,4.13
2023-10-31T14:03:40.119Z,13.57
2023-10-31T14:06:07.871Z,12.63
2023-10-31T14:08:35.075Z,4.40
2023-10-31T14:11:04.200Z,4.07
2023-10-31T14:13:31.309Z,5.38
2023-10-31T14:15:58.317Z,6.10
2023-10-31T14:18:25.351Z,5.63
2023-10-31T14:20:53.153Z,6.35
2023-10-31T14:23:20.266Z,6.32
2023-10-31T14:25:47.325Z,5.20
2023-10-31T14:28:15.892Z,3.75
2023-10-31T14:30:42.900Z,8.20
2023-10-31T14:33:10.058Z,8.25
2023-10-31T14:35:37.089Z,3.22
2023-10-31T14:38:04.525Z,2.80
2023-10-31T14:40:31.723Z,5.35
2023-10-31T14:42:58.857Z,2.03
2023-10-31T14:45:27.439Z,4.88
2023-10-31T14:47:54.885Z,9.40
2023-10-31T14:50:22.165Z,4.88
2023-10-31T14:52:49.162Z,5.18
2023-10-31T14:55:16.528Z,6.20
2023-10-31T14:57:43.518Z,3.92
2023-10-31T15:00:13.226Z,8.93
2023-10-31T15:02:41.679Z,4.10
2023-10-31T15:05:09.949Z,1.98
2023-10-31T15:07:37.082Z,8.52
2023-10-31T15:10:04.460Z,3.63
2023-10-31T15:12:31.513Z,5.00
2023-10-31T15:14:58.509Z,5.40
2023-10-31T15:17:25.564Z,4.53
2023-10-31T15:19:54.058Z,4.75
2023-10-31T15:22:21.057Z,2.97
2023-10-31T15:24:48.093Z,4.55
2023-10-31T15:27:18.720Z,3.75
2023-10-31T15:29:46.019Z,3.40
2023-10-31T15:32:13.193Z,3.80
2023-10-31T15:34:42.035Z,4.35
2023-10-31T15:37:12.985Z,4.55
2023-10-31T15:39:43.313Z,9.35
2023-10-31T15:42:10.593Z,5.93
2023-10-31T15:44:41.163Z,14.18
2023-10-31T15:47:08.589Z,6.75
2023-10-31T15:49:37.244Z,7.05
2023-10-31T15:52:04.736Z,5.15
2023-10-31T15:54:34.056Z,6.93
2023-10-31T15:57:01.208Z,16.52
2023-10-31T15:59:28.353Z,7.53
2023-10-31T16:01:55.503Z,12.32
2023-10-31T16:04:24.845Z,6.30
2023-10-31T16:06:51.981Z,5.90
2023-10-31T16:09:19.078Z,10.30
2023-10-31T16:11:50.638Z,3.83
2023-10-31T16:14:23.068Z,5.75
2023-10-31T16:16:50.534Z,7.15
2023-10-31T16:19:17.860Z,8.55
2023-10-31T16:21:44.853Z,11.57
2023-10-31T16:24:12.134Z,9.25
2023-10-31T16:26:39.383Z,6.20
2023-10-31T16:29:14.881Z,5.85
2023-10-31T16:31:42.139Z,4.10
2023-10-31T16:34:09.118Z,5.95
2023-10-31T16:36:36.120Z,6.35
2023-10-31T16:39:03.600Z,2.88
2023-10-31T16:41:30.800Z,6.80
2023-10-31T16:43:57.898Z,6.95
2023-10-31T16:46:26.269Z,3.15
2023-10-31T16:48:53.247Z,6.43
2023-10-31T16:51:21.252Z,4.20
2023-10-31T16:53:49.103Z,9.77
2023-10-31T16:56:16.969Z,11.18
2023-10-31T16:58:46.823Z,8.63
2023-10-31T17:01:14.234Z,6.75
2023-10-31T17:03:42.942Z,13.90
2023-10-31T17:06:11.699Z,10.50
2023-10-31T17:08:40.551Z,10.35
2023-10-31T17:11:08.098Z,6.63
2023-10-31T17:13:35.532Z,8.23
2023-10-31T17:16:03.727Z,9.00
2023-10-31T17:18:31.649Z,11.07
2023-10-31T17:21:00.683Z,12.57
2023-10-31T17:23:28.198Z,7.30
2023-10-31T17:25:55.176Z,6.65
2023-10-31T17:28:22.229Z,6.55
2023-10-31T17:30:49.289Z,7.03
2023-10-31T17:33:16.550Z,4.88
2023-10-31T17:35:43.713Z,9.52
2023-10-31T17:38:12.301Z,11.70
2023-10-31T17:40:39.418Z,6.95
2023-10-31T17:43:06.611Z,6.32
2023-10-31T17:45:33.740Z,10.23
2023-10-31T17:48:00.993Z,12.40
2023-10-31T17:50:33.087Z,12.13
2023-10-31T17:53:00.462Z,9.90
2023-10-31T17:55:29.561Z,11.18
2023-10-31T17:57:56.778Z,7.72
2023-10-31T18:00:23.809Z,9.43
2023-10-31T18:02:51.057Z,6.40
2023-10-31T18:05:18.256Z,5.97
2023-10-31T18:07:45.347Z,6.20
2023-10-31T18:10:12.354Z,8.13
2023-10-31T18:12:40.685Z,12.00
2023-10-31T18:15:09.400Z,10.55
2023-10-31T18:17:36.441Z,7.18
2023-10-31T18:20:03.990Z,8.43
2023-10-31T18:22:30.986Z,10.60
2023-10-31T18:24:57.960Z,7.80
2023-10-31T18:27:25.439Z,8.63
2023-10-31T18:29:54.760Z,11.07
2023-10-31T18:32:23.141Z,9.65
2023-10-31T18:34:50.308Z,8.98
2023-10-31T18:37:17.675Z,10.10
2023-10-31T18:39:44.967Z,8.00
2023-10-31T18:42:15.714Z,6.97
2023-10-31T18:44:49.767Z,9.00
2023-10-31T18:47:24.769Z,10.15
2023-10-31T18:49:52.094Z,10.10
2023-10-31T18:52:19.289Z,10.55
2023-10-31T18:54:46.332Z,8.30
2023-10-31T18:57:13.659Z,4.45
2023-10-31T18:59:40.670Z,7.43
2023-10-31T19:02:07.711Z,11.10
2023-10-31T19:04:36.154Z,17.25
2023-10-31T19:07:03.302Z,7.32
2023-10-31T19:09:30.309Z,11.45
2023-10-31T19:11:57.529Z,9.55
2023-10-31T19:14:24.555Z,11.13
2023-10-31T19:16:51.770Z,9.90
2023-10-31T19:19:19.178Z,9.63
2023-10-31T19:21:47.650Z,11.82
2023-10-31T19:24:14.741Z,12.80
2023-10-31T19:26:43.343Z,7.72
2023-10-31T19:29:10.483Z,11.45
2023-10-31T19:31:37.599Z,10.73
2023-10-31T19:34:04.682Z,8.13
2023-10-31T19:36:31.750Z,7.20
2023-10-31T19:39:00.144Z,9.82
2023-10-31T19:41:30.947Z,13.52
2023-10-31T19:43:58.265Z,8.85
2023-10-31T19:46:27.599Z,9.88
2023-10-31T19:48:57.255Z,15.13
2023-10-31T19:51:24.280Z,7.13
2023-10-31T19:53:51.413Z,11.70
2023-10-31T19:56:20.444Z,12.98
2023-10-31T19:58:48.214Z,8.07
2023-10-31T20:01:15.561Z,17.85
2023-10-31T20:03:42.885Z,10.57
2023-10-31T20:06:10.459Z,11.15
2023-10-31T20:08:37.821Z,9.75
2023-10-31T20:11:05.861Z,9.60
2023-10-31T20:13:34.317Z,16.15
2023-10-31T20:16:01.617Z,8.35
2023-10-31T20:18:30.342Z,11.32
2023-10-31T20:20:57.533Z,7.03
2023-10-31T20:23:24.593Z,16.10
2023-10-31T20:25:52.663Z,9.25
2023-10-31T20:28:19.814Z,9.48
2023-10-31T20:30:48.412Z,7.25
2023-10-31T20:33:15.753Z,9.25
2023-10-31T20:35:43.023Z,8.52
2023-10-31T20:38:10.053Z,7.13
2023-10-31T20:40:37.763Z,8.15
2023-10-31T20:43:04.717Z,11.60
2023-10-31T20:45:31.877Z,8.25
2023-10-31T20:48:00.348Z,7.43
2023-10-31T20:50:27.459Z,6.18
2023-10-31T20:52:54.669Z,8.18
2023-10-31T20:55:21.621Z,6.65
2023-10-31T20:57:48.606Z,9.07
2023-10-31T21:00:18.553Z,8.52
2023-10-31T21:02:46.572Z,13.40
2023-10-31T21:05:15.297Z,11.65
2023-10-31T21:07:42.391Z,6.93
2023-10-31T21:10:10.002Z,9.20
2023-10-31T21:12:37.337Z,14.70
2023-10-31T21:15:08.036Z,7.57
2023-10-31T21:17:35.194Z,10.60
2023-10-31T21:20:02.261Z,8.48
2023-10-31T21:22:31.630Z,8.82
2023-10-31T21:24:59.775Z,12.20
2023-10-31T21:27:26.794Z,9.35
2023-10-31T21:29:54.237Z,9.27
2023-10-31T21:32:21.597Z,9.63
2023-10-31T21:34:48.694Z,6.55
2023-10-31T21:37:15.730Z,10.40
2023-10-31T21:39:44.131Z,6.20
2023-10-31T21:42:11.258Z,8.45
2023-10-31T21:44:38.314Z,10.30
2023-10-31T21:47:05.906Z,10.05
2023-10-31T21:49:32.930Z,12.23
2023-10-31T21:51:59.937Z,7.93
2023-10-31T21:54:26.997Z,9.10
2023-10-31T21:56:55.398Z,15.88
2023-10-31T21:59:23.919Z,10.00
2023-10-31T22:01:50.957Z,9.77
2023-10-31T22:04:18.441Z,10.50
2023-10-31T22:06:45.448Z,9.57
2023-10-31T22:09:13.068Z,9.23
2023-10-31T22:11:40.131Z,8.70
2023-10-31T22:14:09.529Z,10.02
2023-10-31T22:16:36.638Z,7.28
2023-10-31T22:19:05.399Z,7.50
2023-10-31T22:21:32.399Z,6.75
2023-10-31T22:23:59.588Z,9.70
2023-10-31T22:26:26.876Z,11.40
2023-10-31T22:28:53.878Z,10.95
2023-10-31T22:31:22.408Z,17.98
2023-10-31T22:33:50.020Z,15.95
2023-10-31T22:36:17.049Z,19.20
2023-10-31T22:38:44.008Z,12.65
2023-10-31T22:41:11.061Z,13.35
2023-10-31T22:43:38.280Z,13.23
2023-10-31T22:46:07.764Z,10.50
2023-10-31T22:48:36.146Z,15.68
2023-10-31T22:51:03.736Z,8.88
2023-10-31T22:53:31.403Z,15.75
2023-10-31T22:55:59.381Z,11.95
2023-10-31T22:58:26.511Z,12.82
2023-10-31T23:00:53.579Z,15.63
2023-10-31T23:03:20.783Z,13.63
2023-10-31T23:05:50.171Z,11.82
2023-10-31T23:08:17.323Z,10.68
2023-10-31T23:10:44.461Z,15.70
2023-10-31T23:13:11.482Z,10.10
2023-10-31T23:15:38.529Z,13.20
2023-10-31T23:18:07.061Z,17.85
2023-10-31T23:20:34.225Z,10.07
2023-10-31T23:23:02.843Z,11.43
2023-10-31T23:25:30.742Z,9.35
2023-10-31T23:27:57.803Z,14.45
2023-10-31T23:30:24.944Z,13.50
2023-10-31T23:32:52.681Z,15.05
2023-10-31T23:35:19.861Z,11.85
2023-10-31T23:37:47.071Z,11.27
2023-10-31T23:40:15.462Z,11.65
2023-10-31T23:42:42.527Z,12.00
2023-10-31T23:45:10.496Z,11.60
2023-10-31T23:47:38.020Z,13.30
2023-10-31T23:50:05.735Z,12.10
2023-10-31T23:52:32.917Z,11.90
2023-10-31T23:55:00.447Z,17.80
2023-10-31T23:57:31.259Z,15.85
2023-10-31T23:59:59.304Z,12.07
